createdAt,value
2022-07-25T00:02:34.445Z,15.80
2022-07-25T00:05:21.987Z,15.80
2022-07-25T00:08:10.668Z,15.80
2022-07-25T00:10:57.625Z,15.90
2022-07-25T00:13:44.351Z,15.80
2022-07-25T00:16:32.252Z,15.70
2022-07-25T00:19:19.686Z,15.60
2022-07-25T00:22:07.040Z,15.60
2022-07-25T00:24:55.879Z,15.60
2022-07-25T00:27:45.955Z,15.50
2022-07-25T00:30:33.382Z,15.50
2022-07-25T00:33:20.739Z,15.50
2022-07-25T00:36:08.767Z,15.50
2022-07-25T00:38:56.094Z,15.40
2022-07-25T00:41:45.069Z,15.40
2022-07-25T00:44:34.215Z,15.40
2022-07-25T00:47:21.555Z,15.30
2022-07-25T00:50:09.980Z,15.30
2022-07-25T00:52:57.651Z,15.30
2022-07-25T00:55:45.286Z,15.20
2022-07-25T00:58:34.274Z,15.20
2022-07-25T01:01:21.349Z,15.20
2022-07-25T01:04:09.210Z,15.20
2022-07-25T01:06:56.852Z,15.20
2022-07-25T01:09:44.303Z,15.10
2022-07-25T01:12:31.679Z,15.10
2022-07-25T01:15:21.423Z,15.10
2022-07-25T01:18:11.998Z,15.10
2022-07-25T01:21:00.810Z,15.10
2022-07-25T01:23:47.892Z,15.00
2022-07-25T01:26:35.220Z,15.00
2022-07-25T01:29:22.841Z,15.00
2022-07-25T01:32:09.953Z,15.00
2022-07-25T01:34:57.086Z,15.00
2022-07-25T01:37:45.946Z,15.00
2022-07-25T01:40:33.341Z,15.00
2022-07-25T01:43:20.988Z,14.90
2022-07-25T01:46:08.436Z,15.00
2022-07-25T01:48:56.123Z,14.90
2022-07-25T01:51:43.058Z,15.00
2022-07-25T01:54:32.246Z,15.00
2022-07-25T01:57:19.630Z,14.90
2022-07-25T02:00:08.843Z,14.90
2022-07-25T02:03:09.844Z,14.90
2022-07-25T02:05:56.775Z,14.90
2022-07-25T02:08:44.181Z,14.80
2022-07-25T02:11:32.680Z,14.80
2022-07-25T02:14:19.920Z,14.80
2022-07-25T02:17:08.194Z,14.70
2022-07-25T02:19:55.576Z,14.70
2022-07-25T02:22:42.859Z,14.70
2022-07-25T02:25:29.859Z,14.70
2022-07-25T02:28:18.835Z,14.70
2022-07-25T02:31:05.841Z,14.60
2022-07-25T02:33:53.205Z,14.60
2022-07-25T02:36:40.189Z,14.60
2022-07-25T02:39:27.426Z,14.50
2022-07-25T02:42:14.985Z,14.50
2022-07-25T02:45:03.582Z,14.50
2022-07-25T02:47:50.501Z,14.50
2022-07-25T02:50:38.487Z,14.50
2022-07-25T02:53:54.420Z,14.40
2022-07-25T02:56:33.321Z,14.40
2022-07-25T02:59:20.349Z,14.40
2022-07-25T03:02:09.367Z,14.30
2022-07-25T03:04:56.550Z,14.20
2022-07-25T03:07:45.094Z,14.20
2022-07-25T03:10:32.507Z,14.10
2022-07-25T03:13:19.602Z,14.10
2022-07-25T03:16:10.565Z,14.10
2022-07-25T03:18:59.407Z,14.10
2022-07-25T03:21:46.551Z,14.10
2022-07-25T03:24:33.438Z,14.00
2022-07-25T03:27:20.791Z,14.00
2022-07-25T03:30:09.494Z,14.00
2022-07-25T03:32:56.666Z,14.00
2022-07-25T03:35:45.315Z,13.90
2022-07-25T03:38:32.468Z,13.90
2022-07-25T03:41:19.458Z,13.80
2022-07-25T03:44:07.243Z,13.80
2022-07-25T03:46:54.475Z,13.70
2022-07-25T03:49:41.624Z,13.70
2022-07-25T03:52:30.589Z,13.80
2022-07-25T03:55:17.489Z,13.70
2022-07-25T03:58:04.923Z,13.80
2022-07-25T04:00:52.167Z,13.70
2022-07-25T04:03:39.415Z,13.70
2022-07-25T04:06:31.346Z,13.70
2022-07-25T04:09:19.911Z,13.70
2022-07-25T04:12:08.272Z,13.70
2022-07-25T04:14:55.178Z,13.70
2022-07-25T04:17:42.549Z,13.70
2022-07-25T04:20:30.082Z,13.70
2022-07-25T04:23:17.229Z,13.70
2022-07-25T04:26:06.305Z,13.80
2022-07-25T04:28:53.561Z,14.00
2022-07-25T04:31:41.200Z,14.20
2022-07-25T04:34:34.679Z,14.40
2022-07-25T04:37:22.174Z,14.40
2022-07-25T04:40:11.434Z,14.40
2022-07-25T04:43:00.348Z,14.30
2022-07-25T04:45:47.650Z,14.40
2022-07-25T04:48:35.431Z,14.30
2022-07-25T04:51:22.447Z,14.30
2022-07-25T04:54:10.572Z,14.30
2022-07-25T04:56:57.696Z,14.40
2022-07-25T04:59:45.980Z,14.50
2022-07-25T05:02:33.199Z,14.50
2022-07-25T05:05:21.884Z,14.50
2022-07-25T05:08:09.665Z,14.60
2022-07-25T05:10:56.873Z,14.70
2022-07-25T05:13:44.738Z,14.80
2022-07-25T05:16:33.490Z,15.00
2022-07-25T05:19:20.855Z,15.10
2022-07-25T05:22:08.300Z,15.20
2022-07-25T05:24:55.083Z,15.30
2022-07-25T05:27:42.685Z,15.50
2022-07-25T05:30:39.727Z,15.60
2022-07-25T05:33:28.634Z,15.70
2022-07-25T05:36:15.360Z,15.80
2022-07-25T05:39:02.458Z,15.90
2022-07-25T05:41:49.413Z,16.10
2022-07-25T05:44:36.600Z,16.20
2022-07-25T05:47:23.724Z,16.40
2022-07-25T05:50:12.530Z,16.50
2022-07-25T05:52:59.962Z,16.60
2022-07-25T05:55:47.135Z,16.80
2022-07-25T05:58:34.278Z,16.90
2022-07-25T06:01:21.539Z,17.00
2022-07-25T06:04:09.840Z,17.20
2022-07-25T06:06:58.418Z,17.40
2022-07-25T06:09:45.718Z,17.60
2022-07-25T06:12:36.684Z,17.80
2022-07-25T06:15:26.919Z,18.00
2022-07-25T06:18:15.066Z,18.10
2022-07-25T06:21:02.217Z,18.30
2022-07-25T06:23:50.811Z,18.50
2022-07-25T06:26:39.885Z,18.60
2022-07-25T06:29:27.217Z,18.80
2022-07-25T06:32:14.260Z,19.00
2022-07-25T06:35:01.471Z,19.50
2022-07-25T06:37:48.823Z,20.50
2022-07-25T06:40:37.398Z,21.80
2022-07-25T06:43:24.575Z,23.60
2022-07-25T06:46:11.567Z,24.30
2022-07-25T06:48:58.909Z,25.10
2022-07-25T06:51:47.098Z,25.60
2022-07-25T06:54:34.607Z,26.40
2022-07-25T06:57:23.589Z,26.80
2022-07-25T07:00:12.887Z,26.90
2022-07-25T07:03:02.624Z,27.90
2022-07-25T07:05:49.710Z,28.10
2022-07-25T07:08:36.634Z,28.10
2022-07-25T07:11:24.004Z,28.70
2022-07-25T07:14:12.492Z,30.20
2022-07-25T07:16:59.769Z,30.60
2022-07-25T07:19:47.084Z,30.10
2022-07-25T07:22:44.005Z,30.90
2022-07-25T07:25:31.351Z,31.30
2022-07-25T07:28:18.765Z,31.70
2022-07-25T07:31:17.191Z,32.40
2022-07-25T07:34:04.802Z,33.00
2022-07-25T07:36:53.277Z,33.00
2022-07-25T07:39:40.765Z,32.60
2022-07-25T07:42:27.966Z,33.20
2022-07-25T07:45:17.247Z,33.30
2022-07-25T07:48:08.561Z,33.40
2022-07-25T07:50:55.620Z,33.90
2022-07-25T07:54:00.389Z,33.60
2022-07-25T07:56:49.454Z,34.00
2022-07-25T07:59:36.741Z,32.90
2022-07-25T08:02:23.943Z,32.80
2022-07-25T08:05:13.365Z,32.90
2022-07-25T08:08:01.774Z,32.90
2022-07-25T08:10:49.588Z,31.70
2022-07-25T08:13:38.143Z,31.70
2022-07-25T08:16:25.360Z,31.30
2022-07-25T08:19:12.664Z,32.20
2022-07-25T08:22:01.239Z,31.30
2022-07-25T08:24:48.278Z,31.70
2022-07-25T08:27:35.617Z,31.30
2022-07-25T08:30:24.865Z,31.90
2022-07-25T08:33:16.252Z,32.20
2022-07-25T08:36:03.483Z,32.40
2022-07-25T08:38:52.223Z,32.20
2022-07-25T08:41:41.944Z,32.90
2022-07-25T08:44:33.319Z,33.40
2022-07-25T08:47:22.384Z,33.10
2022-07-25T08:50:11.972Z,33.00
2022-07-25T08:53:30.341Z,32.40
2022-07-25T08:56:13.719Z,31.90
2022-07-25T08:59:03.211Z,31.30
2022-07-25T09:01:50.556Z,31.90
2022-07-25T09:04:38.174Z,32.40
2022-07-25T09:07:32.941Z,32.50
2022-07-25T09:10:21.723Z,33.20
2022-07-25T09:13:14.283Z,33.40
2022-07-25T09:16:01.351Z,33.00
2022-07-25T09:18:48.508Z,32.30
2022-07-25T09:21:35.584Z,33.50
2022-07-25T09:24:23.509Z,33.00
2022-07-25T09:27:12.762Z,33.00
2022-07-25T09:30:01.538Z,31.60
2022-07-25T09:32:48.952Z,31.60
2022-07-25T09:35:38.840Z,31.50
2022-07-25T09:38:26.335Z,31.30
2022-07-25T09:41:13.360Z,31.30
2022-07-25T09:44:00.605Z,31.70
2022-07-25T09:46:49.192Z,31.80
2022-07-25T09:49:41.962Z,31.70
2022-07-25T09:52:29.495Z,31.60
2022-07-25T09:55:16.938Z,32.10
2022-07-25T09:58:04.194Z,33.60
2022-07-25T10:00:52.585Z,33.50
2022-07-25T10:03:50.325Z,33.80
2022-07-25T10:06:41.106Z,33.90
2022-07-25T10:09:28.048Z,34.20
2022-07-25T10:12:19.580Z,33.30
2022-07-25T10:15:09.888Z,33.20
2022-07-25T10:18:06.887Z,32.50
2022-07-25T10:21:24.377Z,32.80
2022-07-25T10:24:13.821Z,32.60
2022-07-25T10:27:09.883Z,32.00
2022-07-25T10:29:57.621Z,32.30
2022-07-25T10:32:51.675Z,32.60
2022-07-25T10:35:39.013Z,33.60
2022-07-25T10:38:29.972Z,33.20
2022-07-25T10:41:18.282Z,33.70
2022-07-25T10:44:06.512Z,33.40
2022-07-25T10:47:06.539Z,33.90
2022-07-25T10:50:18.715Z,34.50
2022-07-25T10:53:09.297Z,35.10
2022-07-25T10:56:06.061Z,35.10
2022-07-25T10:58:55.737Z,35.40
2022-07-25T11:01:44.996Z,34.60
2022-07-25T11:04:32.569Z,35.10
2022-07-25T11:07:19.786Z,35.30
2022-07-25T11:10:07.654Z,35.50
2022-07-25T11:12:57.427Z,34.80
2022-07-25T11:15:45.821Z,34.20
2022-07-25T11:18:34.673Z,34.50
2022-07-25T11:21:21.987Z,34.10
2022-07-25T11:24:09.263Z,34.20
2022-07-25T11:26:56.470Z,33.20
2022-07-25T11:29:45.466Z,34.50
2022-07-25T11:32:40.857Z,35.40
2022-07-25T11:35:29.458Z,35.00
2022-07-25T11:38:17.423Z,33.40
2022-07-25T11:41:06.161Z,32.70
2022-07-25T11:43:53.393Z,32.60
2022-07-25T11:46:47.306Z,34.10
2022-07-25T11:49:45.420Z,34.30
2022-07-25T11:52:34.451Z,35.30
2022-07-25T11:55:30.104Z,35.90
2022-07-25T11:58:19.178Z,36.60
2022-07-25T12:01:13.863Z,35.90
2022-07-25T12:04:11.553Z,35.40
2022-07-25T12:07:06.368Z,35.00
2022-07-25T12:09:59.886Z,33.90
2022-07-25T12:12:50.439Z,33.50
2022-07-25T12:15:38.961Z,33.30
2022-07-25T12:18:26.961Z,33.50
2022-07-25T12:21:15.720Z,34.50
2022-07-25T12:24:02.940Z,34.40
2022-07-25T12:26:50.182Z,34.20
2022-07-25T12:29:37.259Z,34.30
2022-07-25T12:32:23.997Z,34.60
2022-07-25T12:35:13.708Z,34.00
2022-07-25T12:38:02.167Z,33.80
2022-07-25T12:40:49.681Z,34.10
2022-07-25T12:43:37.081Z,33.70
2022-07-25T12:46:24.416Z,33.40
2022-07-25T12:49:12.117Z,33.60
2022-07-25T12:51:59.148Z,32.90
2022-07-25T12:54:48.294Z,32.50
2022-07-25T12:57:37.729Z,32.70
2022-07-25T13:00:25.744Z,32.70
2022-07-25T13:03:14.380Z,32.00
2022-07-25T13:06:01.690Z,32.20
2022-07-25T13:08:48.841Z,32.00
2022-07-25T13:11:37.634Z,31.60
2022-07-25T13:14:24.958Z,32.00
2022-07-25T13:17:12.701Z,32.00
2022-07-25T13:20:00.853Z,32.50
2022-07-25T13:22:47.802Z,33.20
2022-07-25T13:25:36.105Z,33.20
2022-07-25T13:28:24.628Z,32.90
2022-07-25T13:31:11.877Z,33.00
2022-07-25T13:33:59.020Z,32.70
2022-07-25T13:36:46.701Z,32.30
2022-07-25T13:39:35.807Z,31.50
2022-07-25T13:42:25.002Z,31.30
2022-07-25T13:45:13.643Z,31.60
2022-07-25T13:48:27.147Z,31.40
2022-07-25T13:51:08.079Z,31.40
2022-07-25T13:53:55.815Z,32.20
2022-07-25T13:56:43.273Z,32.70
2022-07-25T13:59:30.580Z,32.70
2022-07-25T14:02:18.965Z,32.70
2022-07-25T14:05:06.669Z,33.00
2022-07-25T14:07:54.048Z,33.40
2022-07-25T14:10:41.120Z,33.80
2022-07-25T14:13:32.943Z,34.30
2022-07-25T14:16:20.309Z,34.50
2022-07-25T14:19:09.503Z,34.20
2022-07-25T14:21:56.991Z,34.30
2022-07-25T14:24:43.778Z,34.00
2022-07-25T14:27:31.282Z,33.40
2022-07-25T14:30:18.265Z,33.40
2022-07-25T14:33:06.592Z,33.90
2022-07-25T14:35:54.989Z,33.40
2022-07-25T14:38:41.874Z,33.70
2022-07-25T14:41:28.770Z,33.90
2022-07-25T14:44:16.087Z,33.80
2022-07-25T14:47:02.861Z,33.80
2022-07-25T14:49:52.364Z,33.90
2022-07-25T14:52:40.928Z,33.60
2022-07-25T14:55:28.042Z,33.40
2022-07-25T14:58:15.760Z,33.30
2022-07-25T15:01:02.962Z,32.40
2022-07-25T15:03:50.107Z,32.60
2022-07-25T15:06:37.406Z,32.90
2022-07-25T15:09:25.841Z,33.10
2022-07-25T15:12:16.689Z,32.80
2022-07-25T15:15:04.734Z,32.80
2022-07-25T15:17:51.580Z,32.80
2022-07-25T15:20:40.750Z,32.30
2022-07-25T15:23:30.518Z,32.30
2022-07-25T15:26:19.305Z,32.40
2022-07-25T15:29:08.292Z,32.20
2022-07-25T15:31:55.932Z,32.30
2022-07-25T15:34:43.084Z,32.10
2022-07-25T15:37:30.554Z,31.70
2022-07-25T15:40:18.630Z,31.30
2022-07-25T15:43:06.984Z,31.00
2022-07-25T15:45:54.598Z,30.90
2022-07-25T15:48:42.079Z,30.80
2022-07-25T15:51:29.182Z,30.90
2022-07-25T15:54:16.337Z,30.80
2022-07-25T15:57:03.301Z,30.80
2022-07-25T15:59:51.572Z,30.50
2022-07-25T16:02:40.601Z,30.70
2022-07-25T16:05:27.982Z,30.20
2022-07-25T16:08:15.616Z,30.30
2022-07-25T16:11:02.909Z,29.90
2022-07-25T16:13:49.646Z,29.70
2022-07-25T16:16:38.662Z,29.70
2022-07-25T16:19:25.910Z,29.90
2022-07-25T16:22:12.836Z,29.60
2022-07-25T16:25:01.275Z,29.50
2022-07-25T16:27:50.647Z,29.50
2022-07-25T16:30:37.616Z,29.80
2022-07-25T16:33:26.065Z,30.20
2022-07-25T16:36:13.454Z,30.20
2022-07-25T16:39:00.855Z,30.10
2022-07-25T16:41:48.510Z,29.70
2022-07-25T16:44:35.419Z,30.00
2022-07-25T16:47:22.428Z,29.70
2022-07-25T16:50:11.109Z,29.80
2022-07-25T16:52:58.197Z,29.60
2022-07-25T16:55:45.010Z,29.60
2022-07-25T16:58:32.295Z,29.50
2022-07-25T17:01:19.887Z,29.30
2022-07-25T17:04:07.864Z,29.20
2022-07-25T17:06:56.544Z,28.80
2022-07-25T17:09:43.567Z,28.60
2022-07-25T17:12:30.671Z,28.60
2022-07-25T17:15:17.810Z,28.60
2022-07-25T17:18:05.443Z,28.30
2022-07-25T17:20:53.165Z,28.40
2022-07-25T17:23:41.564Z,28.40
2022-07-25T17:26:28.576Z,28.10
2022-07-25T17:29:15.760Z,28.20
2022-07-25T17:32:03.178Z,28.00
2022-07-25T17:34:52.483Z,27.90
2022-07-25T17:37:39.717Z,27.90
2022-07-25T17:40:28.440Z,27.90
2022-07-25T17:43:15.495Z,27.90
2022-07-25T17:46:02.918Z,27.90
2022-07-25T17:48:50.602Z,28.00
2022-07-25T17:51:37.617Z,28.10
2022-07-25T17:54:24.310Z,27.80
2022-07-25T17:57:12.793Z,27.60
2022-07-25T18:00:02.348Z,27.50
2022-07-25T18:02:50.701Z,27.30
2022-07-25T18:05:38.703Z,27.30
2022-07-25T18:08:25.624Z,27.30
2022-07-25T18:11:12.400Z,27.10
2022-07-25T18:14:00.751Z,26.90
2022-07-25T18:16:47.989Z,26.70
2022-07-25T18:19:35.238Z,26.40
2022-07-25T18:22:22.209Z,26.30
2022-07-25T18:25:11.617Z,26.10
2022-07-25T18:27:58.818Z,25.90
2022-07-25T18:30:47.539Z,25.80
2022-07-25T18:33:35.018Z,25.80
2022-07-25T18:36:21.941Z,25.60
2022-07-25T18:39:09.065Z,25.50
2022-07-25T18:41:56.357Z,25.40
2022-07-25T18:44:45.616Z,25.20
2022-07-25T18:47:35.075Z,25.10
2022-07-25T18:50:21.799Z,25.00
2022-07-25T18:53:09.621Z,25.00
2022-07-25T18:55:56.527Z,24.90
2022-07-25T18:58:43.764Z,24.70
2022-07-25T19:01:31.194Z,24.70
2022-07-25T19:04:20.026Z,24.50
2022-07-25T19:07:08.872Z,24.40
2022-07-25T19:09:56.093Z,24.30
2022-07-25T19:12:43.100Z,24.10
2022-07-25T19:15:30.332Z,24.00
2022-07-25T19:18:17.316Z,24.00
2022-07-25T19:21:06.089Z,23.90
2022-07-25T19:23:53.375Z,23.80
2022-07-25T19:26:42.726Z,23.70
2022-07-25T19:29:29.458Z,23.70
2022-07-25T19:32:18.014Z,23.60
2022-07-25T19:35:06.210Z,23.60
2022-07-25T19:37:54.984Z,23.50
2022-07-25T19:40:42.977Z,23.50
2022-07-25T19:43:30.200Z,23.40
2022-07-25T19:46:17.236Z,23.30
2022-07-25T19:49:05.334Z,23.20
2022-07-25T19:51:52.872Z,23.10
2022-07-25T19:54:41.864Z,23.00
2022-07-25T19:57:29.640Z,23.00
2022-07-25T20:00:25.700Z,22.90
2022-07-25T20:03:13.373Z,22.80
2022-07-25T20:06:07.580Z,22.70
2022-07-25T20:08:55.389Z,22.60
2022-07-25T20:11:44.078Z,22.60
2022-07-25T20:14:30.901Z,22.40
2022-07-25T20:17:17.863Z,22.40
2022-07-25T20:20:06.147Z,22.30
2022-07-25T20:22:55.770Z,22.20
2022-07-25T20:25:42.630Z,22.20
2022-07-25T20:28:30.924Z,22.00
2022-07-25T20:31:22.314Z,21.90
2022-07-25T20:34:09.153Z,21.90
2022-07-25T20:36:56.481Z,21.80
2022-07-25T20:39:43.665Z,21.70
2022-07-25T20:42:30.705Z,21.70
2022-07-25T20:45:18.853Z,21.60
2022-07-25T20:48:06.012Z,21.60
2022-07-25T20:50:53.272Z,21.50
2022-07-25T20:53:41.880Z,21.40
2022-07-25T20:56:28.956Z,21.30
2022-07-25T20:59:15.913Z,21.30
2022-07-25T21:02:04.678Z,21.20
2022-07-25T21:04:51.629Z,21.20
2022-07-25T21:07:41.378Z,21.10
2022-07-25T21:10:28.449Z,21.00
2022-07-25T21:13:16.294Z,20.90
2022-07-25T21:16:06.703Z,20.90
2022-07-25T21:18:56.298Z,20.80
2022-07-25T21:21:43.710Z,20.80
2022-07-25T21:24:30.354Z,20.70
2022-07-25T21:27:18.286Z,20.60
2022-07-25T21:30:06.639Z,20.60
2022-07-25T21:32:53.164Z,20.60
2022-07-25T21:35:49.219Z,20.50
2022-07-25T21:38:40.008Z,20.40
2022-07-25T21:41:26.767Z,20.30
2022-07-25T21:44:16.654Z,20.30
2022-07-25T21:47:03.267Z,20.20
2022-07-25T21:50:08.008Z,20.20
2022-07-25T21:52:56.435Z,20.10
2022-07-25T21:55:43.306Z,20.10
2022-07-25T21:58:30.518Z,20.00
2022-07-25T22:01:17.816Z,19.90
2022-07-25T22:04:06.154Z,19.90
2022-07-25T22:06:53.396Z,19.80
2022-07-25T22:09:42.583Z,19.80
2022-07-25T22:12:29.857Z,19.70
2022-07-25T22:15:17.277Z,19.60
2022-07-25T22:18:04.477Z,19.50
2022-07-25T22:20:51.879Z,19.40
2022-07-25T22:23:39.080Z,19.40
2022-07-25T22:26:27.712Z,19.30
2022-07-25T22:29:14.932Z,19.20
2022-07-25T22:32:02.187Z,19.20
2022-07-25T22:34:49.254Z,19.10
2022-07-25T22:37:36.357Z,19.10
2022-07-25T22:40:23.527Z,19.00
2022-07-25T22:43:12.227Z,18.90
2022-07-25T22:45:59.267Z,18.80
2022-07-25T22:48:46.771Z,18.80
2022-07-25T22:51:34.087Z,18.70
2022-07-25T22:54:21.227Z,18.60
2022-07-25T22:57:08.878Z,18.50
2022-07-25T22:59:57.032Z,18.40
2022-07-25T23:02:45.088Z,18.40
2022-07-25T23:05:33.023Z,18.30
2022-07-25T23:08:22.087Z,18.30
2022-07-25T23:11:09.546Z,18.30
2022-07-25T23:13:57.482Z,18.10
2022-07-25T23:17:05.780Z,18.10
2022-07-25T23:19:54.370Z,18.10
2022-07-25T23:22:41.473Z,18.00
2022-07-25T23:25:28.250Z,17.90
2022-07-25T23:28:16.290Z,17.90
2022-07-25T23:31:03.083Z,17.90
2022-07-25T23:33:51.163Z,17.90
2022-07-25T23:36:38.340Z,18.00
2022-07-25T23:39:25.629Z,18.10
2022-07-25T23:42:12.478Z,18.20
2022-07-25T23:45:00.674Z,18.20
2022-07-25T23:47:47.429Z,18.30
2022-07-25T23:50:37.433Z,18.30
2022-07-25T23:53:24.492Z,18.30
2022-07-25T23:56:13.469Z,18.30
2022-07-25T23:59:02.598Z,18.30
